createdAt,value
2022-10-22T00:09:58.407Z,14.48
2022-10-22T00:20:02.213Z,14.51
2022-10-22T00:30:08.979Z,14.49
2022-10-22T00:40:13.754Z,14.57
2022-10-22T00:50:23.688Z,14.56
2022-10-22T01:00:27.350Z,14.78
2022-10-22T01:10:54.038Z,14.64
2022-10-22T01:21:10.839Z,14.65
2022-10-22T01:31:18.438Z,14.59
2022-10-22T01:41:22.364Z,14.62
2022-10-22T01:51:44.147Z,14.72
2022-10-22T02:01:56.322Z,14.68
2022-10-22T02:22:17.479Z,15.17
2022-10-22T02:32:28.340Z,15.06
2022-10-22T02:42:32.239Z,15.05
2022-10-22T02:52:37.613Z,15.04
2022-10-22T03:02:41.557Z,15.07
2022-10-22T03:12:46.504Z,15.25
2022-10-22T03:22:50.174Z,14.98
2022-10-22T03:32:55.078Z,14.95
2022-10-22T03:42:59.921Z,14.95
2022-10-22T03:53:05.269Z,14.95
2022-10-22T04:03:08.931Z,14.96
2022-10-22T04:13:13.878Z,14.91
2022-10-22T04:23:20.344Z,14.92
2022-10-22T04:33:31.192Z,14.97
2022-10-22T04:43:55.659Z,14.98
2022-10-22T04:54:00.994Z,14.94
2022-10-22T05:04:06.979Z,14.91
2022-10-22T05:14:13.671Z,14.88
2022-10-22T05:24:21.046Z,14.87
2022-10-22T05:34:26.384Z,14.80
2022-10-22T05:44:30.482Z,14.95
2022-10-22T05:54:35.770Z,14.97
2022-10-22T06:04:39.390Z,14.98
2022-10-22T06:14:44.331Z,15.01
2022-10-22T06:24:47.953Z,15.04
2022-10-22T06:34:52.980Z,15.02
2022-10-22T06:44:56.550Z,14.78
2022-10-22T06:55:01.580Z,14.71
2022-10-22T07:05:05.925Z,14.64
2022-10-22T07:15:11.719Z,14.83
2022-10-22T07:25:15.446Z,15.01
2022-10-22T07:35:20.470Z,15.13
2022-10-22T07:45:24.096Z,15.31
2022-10-22T07:55:29.086Z,15.45
2022-10-22T08:05:32.724Z,15.72
2022-10-22T08:15:40.964Z,16.14
2022-10-22T08:25:44.582Z,16.10
2022-10-22T08:35:51.430Z,16.32
2022-10-22T08:46:11.143Z,16.35
2022-10-22T08:56:16.991Z,17.07
2022-10-22T09:06:25.323Z,17.31
2022-10-22T09:16:40.068Z,17.56
2022-10-22T09:26:46.735Z,17.66
2022-10-22T09:36:59.688Z,17.54
2022-10-22T09:47:06.631Z,17.72
2022-10-22T09:57:21.453Z,17.72
2022-10-22T10:07:28.047Z,17.68
2022-10-22T10:17:42.061Z,17.80
2022-10-22T10:27:55.313Z,18.22
2022-10-22T10:38:18.857Z,18.16
2022-10-22T10:48:51.034Z,18.23
2022-10-22T10:59:08.220Z,18.68
2022-10-22T11:09:25.925Z,18.69
2022-10-22T11:19:57.793Z,18.27
2022-10-22T11:30:05.845Z,18.17
2022-10-22T11:40:20.469Z,18.44
2022-10-22T11:50:48.919Z,19.36
2022-10-22T12:00:58.604Z,19.59
2022-10-22T12:11:18.357Z,19.59
2022-10-22T12:21:34.764Z,19.97
2022-10-22T12:31:41.004Z,19.55
2022-10-22T12:41:46.648Z,19.63
2022-10-22T12:51:50.683Z,18.96
2022-10-22T13:01:56.914Z,19.23
2022-10-22T13:12:06.017Z,19.18
2022-10-22T13:22:33.971Z,18.88
2022-10-22T13:32:39.964Z,18.52
2022-10-22T13:42:46.092Z,18.57
2022-10-22T13:52:54.681Z,19.12
2022-10-22T14:03:11.512Z,19.15
2022-10-22T14:13:17.913Z,19.05
2022-10-22T14:23:26.464Z,19.23
2022-10-22T14:33:32.705Z,18.99
2022-10-22T14:43:37.650Z,19.46
2022-10-22T14:53:41.560Z,19.22
2022-10-22T15:03:46.812Z,18.59
2022-10-22T15:13:50.434Z,18.76
2022-10-22T15:23:55.468Z,18.86
2022-10-22T15:34:01.720Z,18.53
2022-10-22T15:44:08.540Z,18.22
2022-10-22T15:54:15.629Z,17.88
2022-10-22T16:04:21.087Z,17.71
2022-10-22T16:14:25.782Z,17.27
2022-10-22T16:24:33.151Z,17.02
2022-10-22T16:34:37.246Z,16.64
2022-10-22T16:44:42.872Z,16.37
2022-10-22T16:54:47.371Z,15.92
2022-10-22T17:04:52.889Z,15.69
2022-10-22T17:14:56.687Z,15.28
2022-10-22T17:25:15.859Z,15.13
2022-10-22T17:35:19.944Z,14.99
2022-10-22T17:45:25.431Z,14.85
2022-10-22T17:55:30.740Z,14.46
2022-10-22T18:05:36.824Z,14.37
2022-10-22T18:15:46.436Z,14.48
2022-10-22T18:25:52.564Z,14.28
2022-10-22T18:35:56.828Z,14.10
2022-10-22T18:46:02.328Z,14.01
2022-10-22T18:56:07.263Z,13.98
2022-10-22T19:06:13.977Z,13.74
2022-10-22T19:16:23.975Z,13.68
2022-10-22T19:26:30.603Z,13.64
2022-10-22T19:36:34.504Z,13.65
2022-10-22T19:46:39.684Z,13.54
2022-10-22T19:56:43.436Z,13.50
2022-10-22T20:06:48.654Z,13.41
2022-10-22T20:16:53.553Z,13.43
2022-10-22T20:26:58.941Z,13.24
2022-10-22T20:37:06.315Z,13.29
2022-10-22T20:47:14.325Z,13.21
2022-10-22T20:57:17.970Z,13.19
2022-10-22T21:07:22.942Z,13.17
2022-10-22T21:17:26.649Z,13.18
2022-10-22T21:27:31.733Z,13.09
2022-10-22T21:37:36.002Z,13.10
2022-10-22T21:47:41.767Z,13.01
2022-10-22T21:57:45.834Z,13.00
2022-10-22T22:07:51.189Z,13.01
2022-10-22T22:17:55.029Z,12.82
2022-10-22T22:28:00.181Z,12.69
2022-10-22T22:38:04.494Z,12.55
2022-10-22T22:48:09.809Z,12.50
2022-10-22T22:58:13.421Z,12.38
2022-10-22T23:08:18.377Z,12.28
2022-10-22T23:18:28.147Z,12.19
2022-10-22T23:28:33.135Z,12.19
2022-10-22T23:38:38.911Z,11.99
2022-10-22T23:48:47.472Z,11.88
2022-10-22T23:58:52.736Z,11.89
